createdAt,value
2023-04-16T00:00:41.286Z,15.40
2023-04-16T00:05:49.252Z,14.50
2023-04-16T00:10:57.718Z,15.90
2023-04-16T00:16:05.211Z,13.30
2023-04-16T00:21:13.717Z,14.40
2023-04-16T00:26:22.184Z,12.40
2023-04-16T00:31:34.385Z,12.70
2023-04-16T00:36:44.686Z,13.00
2023-04-16T00:41:53.103Z,16.60
2023-04-16T00:47:01.766Z,14.70
2023-04-16T00:52:10.584Z,15.30
2023-04-16T00:57:21.471Z,13.60
2023-04-16T01:02:29.972Z,15.30
2023-04-16T01:07:38.236Z,13.90
2023-04-16T01:12:46.475Z,16.00
2023-04-16T01:17:54.814Z,13.30
2023-04-16T01:23:03.086Z,13.20
2023-04-16T01:28:11.697Z,12.40
2023-04-16T01:33:23.363Z,12.30
2023-04-16T01:38:31.712Z,9.50
2023-04-16T01:43:40.466Z,10.90
2023-04-16T01:48:48.535Z,12.10
2023-04-16T01:53:58.664Z,12.90
2023-04-16T01:59:07.660Z,11.60
2023-04-16T02:04:19.803Z,9.20
2023-04-16T02:09:29.052Z,10.10
2023-04-16T02:14:37.246Z,9.60
2023-04-16T02:19:44.811Z,11.90
2023-04-16T02:24:52.730Z,9.10
2023-04-16T02:30:00.320Z,7.80
2023-04-16T02:35:12.421Z,9.80
2023-04-16T02:40:20.481Z,10.40
2023-04-16T02:45:29.397Z,9.80
2023-04-16T02:50:37.130Z,9.60
2023-04-16T02:55:49.280Z,9.90
2023-04-16T03:00:57.379Z,11.80
2023-04-16T03:06:06.266Z,14.50
2023-04-16T03:11:14.497Z,10.10
2023-04-16T03:16:23.122Z,9.40
2023-04-16T03:21:32.175Z,9.00
2023-04-16T03:26:40.424Z,11.00
2023-04-16T03:31:49.377Z,9.90
2023-04-16T03:36:57.858Z,10.40
2023-04-16T03:42:05.995Z,11.90
2023-04-16T03:47:18.302Z,11.20
2023-04-16T03:52:27.490Z,12.10
2023-04-16T03:57:36.314Z,8.90
2023-04-16T04:02:49.383Z,10.60
2023-04-16T04:07:59.526Z,10.30
2023-04-16T04:13:10.552Z,9.90
2023-04-16T04:18:19.037Z,12.00
2023-04-16T04:23:28.145Z,9.70
2023-04-16T04:28:37.179Z,8.50
2023-04-16T04:33:46.117Z,11.20
2023-04-16T04:38:54.521Z,7.90
2023-04-16T04:44:03.045Z,8.30
2023-04-16T04:49:12.178Z,8.20
2023-04-16T04:54:21.122Z,8.70
2023-04-16T04:59:28.736Z,9.10
2023-04-16T05:04:39.266Z,9.90
2023-04-16T05:09:46.641Z,8.20
2023-04-16T05:14:54.966Z,8.10
2023-04-16T05:20:03.277Z,7.60
2023-04-16T05:25:11.536Z,7.20
2023-04-16T05:30:23.053Z,8.00
2023-04-16T05:35:31.291Z,7.10
2023-04-16T05:40:38.662Z,10.60
2023-04-16T05:45:46.261Z,7.40
2023-04-16T05:50:55.022Z,7.30
2023-04-16T05:56:03.918Z,7.20
2023-04-16T06:01:12.915Z,6.10
2023-04-16T06:06:21.457Z,6.70
2023-04-16T06:11:31.347Z,6.50
2023-04-16T06:16:39.502Z,8.30
2023-04-16T06:21:47.928Z,7.00
2023-04-16T06:27:03.729Z,6.80
2023-04-16T06:32:12.854Z,7.60
2023-04-16T06:37:21.358Z,6.80
2023-04-16T06:42:29.855Z,7.60
2023-04-16T06:47:38.482Z,6.50
2023-04-16T06:52:46.024Z,6.40
2023-04-16T06:57:54.558Z,6.60
2023-04-16T07:03:02.843Z,5.80
2023-04-16T07:08:12.051Z,6.60
2023-04-16T07:13:20.381Z,6.70
2023-04-16T07:18:27.870Z,8.40
2023-04-16T07:23:36.245Z,7.50
2023-04-16T07:28:43.615Z,6.40
2023-04-16T07:33:52.410Z,6.20
2023-04-16T07:38:59.937Z,7.10
2023-04-16T07:44:07.881Z,5.80
2023-04-16T07:49:15.389Z,7.30
2023-04-16T07:54:24.157Z,5.90
2023-04-16T07:59:33.054Z,6.30
2023-04-16T08:04:43.134Z,5.50
2023-04-16T08:09:55.596Z,6.20
2023-04-16T08:20:15.719Z,8.30
2023-04-16T08:25:25.375Z,6.20
2023-04-16T08:30:34.317Z,9.50
2023-04-16T08:35:42.769Z,5.90
2023-04-16T08:40:51.713Z,5.30
2023-04-16T08:46:01.207Z,5.90
2023-04-16T08:51:12.541Z,6.50
2023-04-16T08:56:25.950Z,9.80
2023-04-16T09:01:38.552Z,8.10
2023-04-16T09:11:55.491Z,6.60
2023-04-16T09:17:04.339Z,4.70
2023-04-16T09:22:13.145Z,7.10
2023-04-16T09:27:22.535Z,8.40
2023-04-16T09:32:32.713Z,6.20
2023-04-16T09:37:41.124Z,8.10
2023-04-16T09:42:51.742Z,5.10
2023-04-16T09:48:07.479Z,6.00
2023-04-16T09:53:15.116Z,6.40
2023-04-16T09:58:25.007Z,6.50
2023-04-16T10:03:37.501Z,6.50
2023-04-16T10:08:49.904Z,6.10
2023-04-16T10:13:58.012Z,6.80
2023-04-16T10:19:06.863Z,7.10
2023-04-16T10:24:17.074Z,6.70
2023-04-16T10:29:26.779Z,6.40
2023-04-16T10:34:35.430Z,5.90
2023-04-16T10:39:43.747Z,5.30
2023-04-16T10:44:52.559Z,5.60
2023-04-16T10:50:01.847Z,13.40
2023-04-16T10:55:17.804Z,9.60
2023-04-16T11:00:28.322Z,9.10
2023-04-16T11:05:49.133Z,15.70
2023-04-16T11:11:00.724Z,15.30
2023-04-16T11:16:09.535Z,9.30
2023-04-16T11:21:18.737Z,5.10
2023-04-16T11:26:35.549Z,12.40
2023-04-16T11:31:44.437Z,26.90
2023-04-16T11:36:54.302Z,11.40
2023-04-16T11:42:01.858Z,9.00
2023-04-16T11:47:14.311Z,7.50
2023-04-16T11:52:32.431Z,13.90
2023-04-16T11:57:40.926Z,9.60
2023-04-16T12:02:52.609Z,25.80
2023-04-16T12:13:18.573Z,11.30
2023-04-16T12:18:27.982Z,13.30
2023-04-16T12:23:36.543Z,18.60
2023-04-16T12:28:47.333Z,16.10
2023-04-16T12:34:07.272Z,23.10
2023-04-16T12:39:15.669Z,25.50
2023-04-16T12:44:23.197Z,20.20
2023-04-16T12:49:31.104Z,11.20
2023-04-16T12:54:38.353Z,8.60
2023-04-16T12:59:47.538Z,7.60
2023-04-16T13:04:56.813Z,7.50
2023-04-16T13:10:06.599Z,9.00
2023-04-16T13:15:16.009Z,6.60
2023-04-16T13:20:24.586Z,33.10
2023-04-16T13:25:32.910Z,15.70
2023-04-16T13:30:41.373Z,26.40
2023-04-16T13:35:50.382Z,19.40
2023-04-16T13:40:58.647Z,12.90
2023-04-16T13:46:07.556Z,12.90
2023-04-16T13:51:16.241Z,9.60
2023-04-16T13:56:25.403Z,10.80
2023-04-16T14:01:34.035Z,9.20
2023-04-16T14:06:42.346Z,12.20
2023-04-16T14:11:51.780Z,9.30
2023-04-16T14:17:02.292Z,13.00
2023-04-16T14:22:11.343Z,15.20
2023-04-16T14:27:20.417Z,10.10
2023-04-16T14:32:29.587Z,10.40
2023-04-16T14:37:39.413Z,9.40
2023-04-16T14:42:47.665Z,7.80
2023-04-16T14:47:55.928Z,8.40
2023-04-16T14:53:04.201Z,7.70
2023-04-16T14:58:12.953Z,15.50
2023-04-16T15:03:20.836Z,10.30
2023-04-16T15:08:28.333Z,17.20
2023-04-16T15:13:36.517Z,13.00
2023-04-16T15:18:45.317Z,12.50
2023-04-16T15:23:54.405Z,7.50
2023-04-16T15:29:03.287Z,9.10
2023-04-16T15:34:11.955Z,5.90
2023-04-16T15:39:21.247Z,5.40
2023-04-16T15:44:29.745Z,4.10
2023-04-16T15:49:38.154Z,4.90
2023-04-16T15:54:46.512Z,4.70
2023-04-16T16:00:06.531Z,5.60
2023-04-16T16:05:16.653Z,5.20
2023-04-16T16:10:24.828Z,7.40
2023-04-16T16:15:33.763Z,6.60
2023-04-16T16:20:41.169Z,6.50
2023-04-16T16:25:49.672Z,8.90
2023-04-16T16:31:04.589Z,4.40
2023-04-16T16:36:16.465Z,6.40
2023-04-16T16:41:24.841Z,7.00
2023-04-16T16:46:33.279Z,6.60
2023-04-16T16:51:42.164Z,7.60
2023-04-16T16:56:50.861Z,7.10
2023-04-16T17:01:59.643Z,8.20
2023-04-16T17:07:08.043Z,9.70
2023-04-16T17:12:16.806Z,6.30
2023-04-16T17:17:24.674Z,6.60
2023-04-16T17:22:33.292Z,6.60
2023-04-16T17:27:41.778Z,6.30
2023-04-16T17:32:49.926Z,8.40
2023-04-16T17:37:57.555Z,10.10
2023-04-16T17:43:06.251Z,10.50
2023-04-16T17:48:15.030Z,8.90
2023-04-16T17:53:23.445Z,7.20
2023-04-16T17:58:33.589Z,8.50
2023-04-16T18:03:44.820Z,8.50
2023-04-16T18:08:53.186Z,10.00
2023-04-16T18:14:01.831Z,8.30
2023-04-16T18:19:10.525Z,6.60
2023-04-16T18:24:17.994Z,13.50
2023-04-16T18:29:26.463Z,12.40
2023-04-16T18:34:34.852Z,9.80
2023-04-16T18:39:57.346Z,9.10
2023-04-16T18:45:06.933Z,10.50
2023-04-16T18:50:14.886Z,11.70
2023-04-16T18:55:23.289Z,18.20
2023-04-16T19:00:31.001Z,15.60
2023-04-16T19:05:38.346Z,51.40
2023-04-16T19:10:48.463Z,35.30
2023-04-16T19:16:01.129Z,23.70
2023-04-16T19:21:11.170Z,20.90
2023-04-16T19:26:18.374Z,17.80
2023-04-16T19:31:26.562Z,19.80
2023-04-16T19:36:35.425Z,76.30
2023-04-16T19:41:42.874Z,93.80
2023-04-16T19:46:51.135Z,86.30
2023-04-16T19:51:58.393Z,56.40
2023-04-16T19:57:08.110Z,52.60
2023-04-16T20:02:16.390Z,54.90
2023-04-16T20:07:24.552Z,38.80
2023-04-16T20:12:32.578Z,45.50
2023-04-16T20:17:40.850Z,31.50
2023-04-16T20:22:49.633Z,27.10
2023-04-16T20:27:57.886Z,20.90
2023-04-16T20:33:06.268Z,22.70
2023-04-16T20:38:15.207Z,21.40
2023-04-16T20:43:22.543Z,19.10
2023-04-16T20:48:30.792Z,22.00
2023-04-16T20:53:38.735Z,13.00
2023-04-16T20:58:46.849Z,14.80
2023-04-16T21:03:54.519Z,13.30
2023-04-16T21:09:02.852Z,19.80
2023-04-16T21:14:11.268Z,19.30
2023-04-16T21:19:18.861Z,15.90
2023-04-16T21:24:27.387Z,15.70
2023-04-16T21:29:36.164Z,19.30
2023-04-16T21:34:44.836Z,30.50
2023-04-16T21:39:52.939Z,32.40
2023-04-16T21:45:00.619Z,18.60
2023-04-16T21:50:10.803Z,16.60
2023-04-16T21:55:18.396Z,16.60
2023-04-16T22:00:27.085Z,17.60
2023-04-16T22:05:34.236Z,15.70
2023-04-16T22:10:42.453Z,17.80
2023-04-16T22:15:50.969Z,17.60
2023-04-16T22:20:58.296Z,16.80
2023-04-16T22:26:05.898Z,16.60
2023-04-16T22:31:13.202Z,15.60
2023-04-16T22:36:21.857Z,20.40
2023-04-16T22:41:30.389Z,20.00
2023-04-16T22:46:38.738Z,18.60
2023-04-16T22:51:46.946Z,23.20
2023-04-16T22:56:55.040Z,26.10
2023-04-16T23:02:03.557Z,22.90
2023-04-16T23:07:12.144Z,22.30
2023-04-16T23:12:20.526Z,23.50
2023-04-16T23:17:28.997Z,29.20
2023-04-16T23:22:37.225Z,33.10
2023-04-16T23:27:46.111Z,29.20
2023-04-16T23:32:53.491Z,28.40
2023-04-16T23:38:00.824Z,24.00
2023-04-16T23:43:09.345Z,18.60
2023-04-16T23:48:16.597Z,12.90
2023-04-16T23:53:23.858Z,15.50
2023-04-16T23:58:32.247Z,17.30
